Here is the Quick Look data you requested

The Data originates at the National Weather Service, and is made available here by the UAlbany Department of Atmospheric and Environmental Sciences

Surface Observations

KDOV 251756Z AUTO 10009KT 10SM BKN130 15/10 A2994 RMK AO2 SLP142 60000
 T01510103 10158 20141 57004 $=
KGED 251754Z AUTO 05009KT 10SM BKN060 17/11 A2993 RMK AO2 SLP134 T01670106
 10194 20150 56007=
KILG 251751Z 06005KT 10SM FEW080 SCT110 18/10 A2994 RMK AO2 SLP136 60000
 T01830100 10183 20139 58007=